sensor_id;sensor_type;location;lat;lon;timestamp;P1;durP1;ratioP1;P2;durP2;ratioP2
23868;SDS011;12115;47.128;15.422;2023-06-14T00:00:54;4.82;;;2.70;;
23868;SDS011;12115;47.128;15.422;2023-06-14T00:03:23;4.55;;;2.45;;
23868;SDS011;12115;47.128;15.422;2023-06-14T00:05:51;3.85;;;1.85;;
23868;SDS011;12115;47.128;15.422;2023-06-14T00:08:19;4.07;;;2.40;;
23868;SDS011;12115;47.128;15.422;2023-06-14T00:11:08;3.92;;;2.72;;
23868;SDS011;12115;47.128;15.422;2023-06-14T00:13:35;2.85;;;2.35;;
23868;SDS011;12115;47.128;15.422;2023-06-14T00:16:03;2.90;;;2.70;;
23868;SDS011;12115;47.128;15.422;2023-06-14T00:18:31;4.50;;;2.60;;
23868;SDS011;12115;47.128;15.422;2023-06-14T00:20:59;4.20;;;2.60;;
23868;SDS011;12115;47.128;15.422;2023-06-14T00:23:32;3.85;;;2.58;;
23868;SDS011;12115;47.128;15.422;2023-06-14T00:25:59;4.00;;;2.35;;
23868;SDS011;12115;47.128;15.422;2023-06-14T00:28:27;2.60;;;2.40;;
23868;SDS011;12115;47.128;15.422;2023-06-14T00:30:54;3.50;;;2.53;;
23868;SDS011;12115;47.128;15.422;2023-06-14T00:33:22;3.35;;;2.30;;
23868;SDS011;12115;47.128;15.422;2023-06-14T00:35:58;2.80;;;2.10;;
23868;SDS011;12115;47.128;15.422;2023-06-14T00:38:27;5.07;;;2.38;;
23868;SDS011;12115;47.128;15.422;2023-06-14T00:40:56;7.38;;;2.67;;
23868;SDS011;12115;47.128;15.422;2023-06-14T00:43:26;3.60;;;2.45;;
23868;SDS011;12115;47.128;15.422;2023-06-14T00:45:54;6.35;;;2.55;;
23868;SDS011;12115;47.128;15.422;2023-06-14T00:48:21;5.00;;;2.53;;
23868;SDS011;12115;47.128;15.422;2023-06-14T00:50:50;4.60;;;2.90;;
23868;SDS011;12115;47.128;15.422;2023-06-14T00:53:19;2.88;;;2.40;;
23868;SDS011;12115;47.128;15.422;2023-06-14T00:55:50;4.80;;;2.47;;
23868;SDS011;12115;47.128;15.422;2023-06-14T00:58:19;4.80;;;2.53;;
23868;SDS011;12115;47.128;15.422;2023-06-14T01:01:01;4.22;;;2.13;;
23868;SDS011;12115;47.128;15.422;2023-06-14T01:03:33;4.00;;;2.67;;
23868;SDS011;12115;47.128;15.422;2023-06-14T01:17:08;8.40;;;3.20;;
23868;SDS011;12115;47.128;15.422;2023-06-14T01:34:09;4.88;;;2.67;;
23868;SDS011;12115;47.128;15.422;2023-06-14T01:37:28;2.72;;;2.47;;
23868;SDS011;12115;47.128;15.422;2023-06-14T01:45:47;4.33;;;2.53;;
23868;SDS011;12115;47.128;15.422;2023-06-14T01:49:49;3.58;;;2.70;;
23868;SDS011;12115;47.128;15.422;2023-06-14T01:53:08;6.00;;;3.22;;
23868;SDS011;12115;47.128;15.422;2023-06-14T01:57:17;4.47;;;2.65;;
23868;SDS011;12115;47.128;15.422;2023-06-14T01:59:53;6.93;;;3.03;;
23868;SDS011;12115;47.128;15.422;2023-06-14T02:07:08;4.50;;;2.90;;
23868;SDS011;12115;47.128;15.422;2023-06-14T02:14:18;4.28;;;3.28;;
23868;SDS011;12115;47.128;15.422;2023-06-14T02:17:05;4.07;;;2.58;;
23868;SDS011;12115;47.128;15.422;2023-06-14T02:25:01;6.55;;;2.78;;
23868;SDS011;12115;47.128;15.422;2023-06-14T02:46:32;4.35;;;2.80;;
23868;SDS011;12115;47.128;15.422;2023-06-14T02:57:56;3.42;;;2.47;;
23868;SDS011;12115;47.128;15.422;2023-06-14T03:05:07;4.30;;;2.58;;
23868;SDS011;12115;47.128;15.422;2023-06-14T03:07:36;6.85;;;3.22;;
23868;SDS011;12115;47.128;15.422;2023-06-14T03:10:21;4.18;;;2.70;;
23868;SDS011;12115;47.128;15.422;2023-06-14T03:12:50;3.33;;;2.78;;
23868;SDS011;12115;47.128;15.422;2023-06-14T03:15:20;3.45;;;2.75;;
23868;SDS011;12115;47.128;15.422;2023-06-14T03:17:54;2.80;;;2.40;;
23868;SDS011;12115;47.128;15.422;2023-06-14T03:20:21;5.20;;;2.70;;
23868;SDS011;12115;47.128;15.422;2023-06-14T03:22:52;2.72;;;2.47;;
23868;SDS011;12115;47.128;15.422;2023-06-14T03:25:21;4.88;;;2.85;;
23868;SDS011;12115;47.128;15.422;2023-06-14T03:27:50;4.47;;;3.00;;
23868;SDS011;12115;47.128;15.422;2023-06-14T03:30:18;4.18;;;3.17;;
23868;SDS011;12115;47.128;15.422;2023-06-14T03:32:48;4.22;;;2.70;;
23868;SDS011;12115;47.128;15.422;2023-06-14T03:35:19;4.10;;;2.55;;
23868;SDS011;12115;47.128;15.422;2023-06-14T03:37:47;2.83;;;2.45;;
23868;SDS011;12115;47.128;15.422;2023-06-14T03:40:17;3.28;;;2.70;;
23868;SDS011;12115;47.128;15.422;2023-06-14T03:42:55;5.18;;;2.83;;
23868;SDS011;12115;47.128;15.422;2023-06-14T03:45:25;3.13;;;2.47;;
23868;SDS011;12115;47.128;15.422;2023-06-14T03:48:04;3.72;;;2.60;;
23868;SDS011;12115;47.128;15.422;2023-06-14T03:50:34;4.43;;;3.08;;
23868;SDS011;12115;47.128;15.422;2023-06-14T03:53:05;6.13;;;2.65;;
23868;SDS011;12115;47.128;15.422;2023-06-14T03:55:35;3.95;;;2.60;;
23868;SDS011;12115;47.128;15.422;2023-06-14T03:58:31;2.85;;;2.30;;
23868;SDS011;12115;47.128;15.422;2023-06-14T04:00:59;6.43;;;2.60;;
23868;SDS011;12115;47.128;15.422;2023-06-14T04:03:30;4.40;;;2.50;;
23868;SDS011;12115;47.128;15.422;2023-06-14T04:06:00;3.53;;;2.38;;
23868;SDS011;12115;47.128;15.422;2023-06-14T04:08:31;2.40;;;2.03;;
23868;SDS011;12115;47.128;15.422;2023-06-14T04:11:01;5.82;;;2.72;;
23868;SDS011;12115;47.128;15.422;2023-06-14T04:13:28;4.70;;;2.88;;
23868;SDS011;12115;47.128;15.422;2023-06-14T04:16:22;3.13;;;2.60;;
23868;SDS011;12115;47.128;15.422;2023-06-14T04:18:52;6.07;;;3.05;;
23868;SDS011;12115;47.128;15.422;2023-06-14T04:21:27;4.22;;;2.75;;
23868;SDS011;12115;47.128;15.422;2023-06-14T04:23:58;6.15;;;2.40;;
23868;SDS011;12115;47.128;15.422;2023-06-14T04:26:31;4.38;;;2.60;;
23868;SDS011;12115;47.128;15.422;2023-06-14T04:29:00;3.13;;;2.83;;
23868;SDS011;12115;47.128;15.422;2023-06-14T04:31:39;3.15;;;2.42;;
23868;SDS011;12115;47.128;15.422;2023-06-14T04:34:16;3.55;;;2.78;;
23868;SDS011;12115;47.128;15.422;2023-06-14T04:36:56;6.47;;;2.60;;
23868;SDS011;12115;47.128;15.422;2023-06-14T04:39:39;7.43;;;3.33;;
23868;SDS011;12115;47.128;15.422;2023-06-14T04:42:09;5.88;;;3.17;;
23868;SDS011;12115;47.128;15.422;2023-06-14T04:44:45;4.55;;;2.72;;
23868;SDS011;12115;47.128;15.422;2023-06-14T04:47:17;3.30;;;2.78;;
23868;SDS011;12115;47.128;15.422;2023-06-14T04:49:44;4.07;;;2.92;;
23868;SDS011;12115;47.128;15.422;2023-06-14T04:52:12;4.75;;;2.80;;
23868;SDS011;12115;47.128;15.422;2023-06-14T04:54:44;3.50;;;2.50;;
23868;SDS011;12115;47.128;15.422;2023-06-14T04:57:18;4.20;;;2.97;;
23868;SDS011;12115;47.128;15.422;2023-06-14T04:59:50;4.05;;;2.90;;
23868;SDS011;12115;47.128;15.422;2023-06-14T05:02:23;6.45;;;2.88;;
23868;SDS011;12115;47.128;15.422;2023-06-14T05:04:53;4.38;;;2.85;;
23868;SDS011;12115;47.128;15.422;2023-06-14T05:07:24;4.00;;;3.50;;
23868;SDS011;12115;47.128;15.422;2023-06-14T05:09:56;4.40;;;2.85;;
23868;SDS011;12115;47.128;15.422;2023-06-14T05:12:23;4.55;;;3.50;;
23868;SDS011;12115;47.128;15.422;2023-06-14T05:14:51;4.15;;;2.97;;
23868;SDS011;12115;47.128;15.422;2023-06-14T05:17:35;3.90;;;3.25;;
23868;SDS011;12115;47.128;15.422;2023-06-14T05:20:04;4.00;;;3.10;;
23868;SDS011;12115;47.128;15.422;2023-06-14T05:22:36;3.67;;;3.03;;
23868;SDS011;12115;47.128;15.422;2023-06-14T05:25:07;4.50;;;2.85;;
23868;SDS011;12115;47.128;15.422;2023-06-14T05:28:00;4.22;;;3.03;;
23868;SDS011;12115;47.128;15.422;2023-06-14T05:30:27;7.25;;;2.92;;
23868;SDS011;12115;47.128;15.422;2023-06-14T05:32:57;8.90;;;3.10;;
23868;SDS011;12115;47.128;15.422;2023-06-14T05:35:25;3.00;;;2.60;;
23868;SDS011;12115;47.128;15.422;2023-06-14T05:37:53;4.22;;;2.78;;
23868;SDS011;12115;47.128;15.422;2023-06-14T05:40:21;3.00;;;2.70;;
23868;SDS011;12115;47.128;15.422;2023-06-14T05:42:48;5.90;;;3.10;;
23868;SDS011;12115;47.128;15.422;2023-06-14T05:45:15;6.57;;;3.00;;
23868;SDS011;12115;47.128;15.422;2023-06-14T05:47:47;3.50;;;2.75;;
23868;SDS011;12115;47.128;15.422;2023-06-14T05:50:15;4.15;;;2.42;;
23868;SDS011;12115;47.128;15.422;2023-06-14T05:52:42;2.95;;;2.50;;
23868;SDS011;12115;47.128;15.422;2023-06-14T05:55:10;4.35;;;2.78;;
23868;SDS011;12115;47.128;15.422;2023-06-14T05:57:40;5.25;;;3.65;;
23868;SDS011;12115;47.128;15.422;2023-06-14T06:00:08;6.40;;;3.88;;
23868;SDS011;12115;47.128;15.422;2023-06-14T06:02:42;5.18;;;3.10;;
23868;SDS011;12115;47.128;15.422;2023-06-14T06:05:10;3.53;;;3.05;;
23868;SDS011;12115;47.128;15.422;2023-06-14T06:07:39;6.15;;;3.35;;
23868;SDS011;12115;47.128;15.422;2023-06-14T06:10:08;4.72;;;3.25;;
23868;SDS011;12115;47.128;15.422;2023-06-14T06:12:41;4.38;;;2.95;;
23868;SDS011;12115;47.128;15.422;2023-06-14T06:15:17;5.13;;;3.25;;
23868;SDS011;12115;47.128;15.422;2023-06-14T06:17:46;4.18;;;3.30;;
23868;SDS011;12115;47.128;15.422;2023-06-14T06:20:23;4.50;;;3.40;;
23868;SDS011;12115;47.128;15.422;2023-06-14T06:23:06;5.28;;;3.20;;
23868;SDS011;12115;47.128;15.422;2023-06-14T06:25:34;5.43;;;3.20;;
23868;SDS011;12115;47.128;15.422;2023-06-14T06:28:01;4.03;;;3.17;;
23868;SDS011;12115;47.128;15.422;2023-06-14T06:30:30;4.90;;;3.08;;
23868;SDS011;12115;47.128;15.422;2023-06-14T06:33:02;3.33;;;3.03;;
23868;SDS011;12115;47.128;15.422;2023-06-14T06:35:30;4.05;;;2.83;;
23868;SDS011;12115;47.128;15.422;2023-06-14T06:38:00;4.15;;;2.85;;
23868;SDS011;12115;47.128;15.422;2023-06-14T06:40:31;5.07;;;3.33;;
23868;SDS011;12115;47.128;15.422;2023-06-14T06:42:59;4.97;;;3.10;;
23868;SDS011;12115;47.128;15.422;2023-06-14T06:45:27;4.93;;;3.25;;
23868;SDS011;12115;47.128;15.422;2023-06-14T06:47:54;6.55;;;3.30;;
23868;SDS011;12115;47.128;15.422;2023-06-14T06:50:23;5.22;;;2.78;;
23868;SDS011;12115;47.128;15.422;2023-06-14T06:53:25;4.90;;;3.40;;
23868;SDS011;12115;47.128;15.422;2023-06-14T06:56:09;3.40;;;3.10;;
23868;SDS011;12115;47.128;15.422;2023-06-14T06:58:37;4.57;;;3.10;;
23868;SDS011;12115;47.128;15.422;2023-06-14T07:01:12;5.40;;;3.28;;
23868;SDS011;12115;47.128;15.422;2023-06-14T07:03:44;6.40;;;3.10;;
23868;SDS011;12115;47.128;15.422;2023-06-14T07:06:18;7.05;;;2.85;;
23868;SDS011;12115;47.128;15.422;2023-06-14T07:08:45;4.63;;;3.10;;
23868;SDS011;12115;47.128;15.422;2023-06-14T07:11:15;9.82;;;3.10;;
23868;SDS011;12115;47.128;15.422;2023-06-14T07:13:44;5.38;;;2.72;;
23868;SDS011;12115;47.128;15.422;2023-06-14T07:16:24;6.93;;;2.67;;
23868;SDS011;12115;47.128;15.422;2023-06-14T07:18:59;5.50;;;3.10;;
23868;SDS011;12115;47.128;15.422;2023-06-14T07:22:12;7.07;;;2.78;;
23868;SDS011;12115;47.128;15.422;2023-06-14T07:24:50;4.57;;;2.95;;
23868;SDS011;12115;47.128;15.422;2023-06-14T07:27:24;3.42;;;3.13;;
23868;SDS011;12115;47.128;15.422;2023-06-14T07:29:51;5.40;;;3.50;;
23868;SDS011;12115;47.128;15.422;2023-06-14T07:32:25;6.22;;;3.30;;
23868;SDS011;12115;47.128;15.422;2023-06-14T07:34:55;4.20;;;3.10;;
23868;SDS011;12115;47.128;15.422;2023-06-14T07:37:25;4.05;;;2.72;;
23868;SDS011;12115;47.128;15.422;2023-06-14T07:39:53;5.65;;;2.92;;
23868;SDS011;12115;47.128;15.422;2023-06-14T07:42:32;4.15;;;2.88;;
23868;SDS011;12115;47.128;15.422;2023-06-14T07:45:04;6.70;;;2.83;;
23868;SDS011;12115;47.128;15.422;2023-06-14T07:47:33;5.63;;;2.53;;
23868;SDS011;12115;47.128;15.422;2023-06-14T07:50:00;6.07;;;4.63;;
23868;SDS011;12115;47.128;15.422;2023-06-14T07:52:28;4.13;;;3.13;;
23868;SDS011;12115;47.128;15.422;2023-06-14T07:54:57;4.57;;;3.08;;
23868;SDS011;12115;47.128;15.422;2023-06-14T07:57:25;7.55;;;2.83;;
23868;SDS011;12115;47.128;15.422;2023-06-14T07:59:52;6.85;;;2.72;;
23868;SDS011;12115;47.128;15.422;2023-06-14T08:04:53;3.72;;;2.83;;
23868;SDS011;12115;47.128;15.422;2023-06-14T08:07:22;8.10;;;2.75;;
23868;SDS011;12115;47.128;15.422;2023-06-14T08:09:55;3.63;;;2.50;;
23868;SDS011;12115;47.128;15.422;2023-06-14T08:13:35;4.88;;;2.50;;
23868;SDS011;12115;47.128;15.422;2023-06-14T08:18:33;5.82;;;2.70;;
23868;SDS011;12115;47.128;15.422;2023-06-14T08:21:00;5.72;;;2.75;;
23868;SDS011;12115;47.128;15.422;2023-06-14T08:23:27;7.50;;;3.33;;
23868;SDS011;12115;47.128;15.422;2023-06-14T08:25:55;6.22;;;3.35;;
23868;SDS011;12115;47.128;15.422;2023-06-14T08:28:23;5.18;;;3.30;;
23868;SDS011;12115;47.128;15.422;2023-06-14T08:30:51;5.53;;;3.55;;
23868;SDS011;12115;47.128;15.422;2023-06-14T08:33:18;5.95;;;3.97;;
23868;SDS011;12115;47.128;15.422;2023-06-14T08:35:46;4.65;;;3.70;;
23868;SDS011;12115;47.128;15.422;2023-06-14T08:38:13;6.88;;;4.28;;
23868;SDS011;12115;47.128;15.422;2023-06-14T08:40:41;9.40;;;4.20;;
23868;SDS011;12115;47.128;15.422;2023-06-14T08:43:09;7.53;;;4.50;;
23868;SDS011;12115;47.128;15.422;2023-06-14T08:45:36;5.20;;;4.10;;
23868;SDS011;12115;47.128;15.422;2023-06-14T08:48:04;7.47;;;4.35;;
23868;SDS011;12115;47.128;15.422;2023-06-14T08:50:35;6.32;;;4.13;;
23868;SDS011;12115;47.128;15.422;2023-06-14T08:53:06;5.55;;;3.80;;
23868;SDS011;12115;47.128;15.422;2023-06-14T08:55:38;9.65;;;4.55;;
23868;SDS011;12115;47.128;15.422;2023-06-14T08:58:09;7.65;;;3.20;;
23868;SDS011;12115;47.128;15.422;2023-06-14T09:00:41;4.70;;;3.20;;
23868;SDS011;12115;47.128;15.422;2023-06-14T09:03:10;4.95;;;3.63;;
23868;SDS011;12115;47.128;15.422;2023-06-14T09:05:40;3.92;;;3.13;;
23868;SDS011;12115;47.128;15.422;2023-06-14T09:08:08;5.25;;;3.00;;
23868;SDS011;12115;47.128;15.422;2023-06-14T09:10:36;3.95;;;2.90;;
23868;SDS011;12115;47.128;15.422;2023-06-14T09:13:05;5.70;;;2.88;;
23868;SDS011;12115;47.128;15.422;2023-06-14T09:15:34;6.85;;;3.30;;
23868;SDS011;12115;47.128;15.422;2023-06-14T09:18:02;3.47;;;2.95;;
23868;SDS011;12115;47.128;15.422;2023-06-14T09:20:31;6.70;;;3.78;;
23868;SDS011;12115;47.128;15.422;2023-06-14T09:22:58;4.75;;;3.03;;
23868;SDS011;12115;47.128;15.422;2023-06-14T09:25:27;3.95;;;3.00;;
23868;SDS011;12115;47.128;15.422;2023-06-14T09:27:57;6.85;;;3.10;;
23868;SDS011;12115;47.128;15.422;2023-06-14T09:30:25;6.55;;;2.92;;
23868;SDS011;12115;47.128;15.422;2023-06-14T09:32:53;7.18;;;3.60;;
23868;SDS011;12115;47.128;15.422;2023-06-14T09:35:25;4.88;;;3.10;;
23868;SDS011;12115;47.128;15.422;2023-06-14T09:37:56;4.80;;;3.00;;
23868;SDS011;12115;47.128;15.422;2023-06-14T09:40:23;4.90;;;3.13;;
23868;SDS011;12115;47.128;15.422;2023-06-14T09:42:51;6.35;;;3.38;;
23868;SDS011;12115;47.128;15.422;2023-06-14T09:45:20;4.75;;;2.97;;
23868;SDS011;12115;47.128;15.422;2023-06-14T09:47:49;3.75;;;3.10;;
23868;SDS011;12115;47.128;15.422;2023-06-14T09:50:32;5.45;;;3.25;;
23868;SDS011;12115;47.128;15.422;2023-06-14T09:53:03;4.72;;;3.60;;
23868;SDS011;12115;47.128;15.422;2023-06-14T09:55:37;5.10;;;3.42;;
23868;SDS011;12115;47.128;15.422;2023-06-14T09:58:07;3.72;;;2.90;;
23868;SDS011;12115;47.128;15.422;2023-06-14T10:00:36;4.00;;;2.90;;
23868;SDS011;12115;47.128;15.422;2023-06-14T10:03:06;5.15;;;3.35;;
23868;SDS011;12115;47.128;15.422;2023-06-14T10:05:45;4.95;;;3.05;;
23868;SDS011;12115;47.128;15.422;2023-06-14T10:08:15;4.20;;;2.78;;
23868;SDS011;12115;47.128;15.422;2023-06-14T10:10:44;4.07;;;3.42;;
23868;SDS011;12115;47.128;15.422;2023-06-14T10:13:12;4.55;;;2.95;;
23868;SDS011;12115;47.128;15.422;2023-06-14T10:15:50;12.38;;;6.60;;
23868;SDS011;12115;47.128;15.422;2023-06-14T10:21:33;4.20;;;3.10;;
23868;SDS011;12115;47.128;15.422;2023-06-14T10:24:09;5.63;;;3.10;;
23868;SDS011;12115;47.128;15.422;2023-06-14T10:26:58;5.80;;;3.60;;
23868;SDS011;12115;47.128;15.422;2023-06-14T10:29:28;5.22;;;3.45;;
23868;SDS011;12115;47.128;15.422;2023-06-14T10:31:59;6.70;;;3.45;;
23868;SDS011;12115;47.128;15.422;2023-06-14T10:34:31;5.68;;;3.35;;
23868;SDS011;12115;47.128;15.422;2023-06-14T10:39:38;3.45;;;2.95;;
23868;SDS011;12115;47.128;15.422;2023-06-14T10:42:14;3.83;;;2.83;;
23868;SDS011;12115;47.128;15.422;2023-06-14T10:52:33;7.32;;;2.72;;
23868;SDS011;12115;47.128;15.422;2023-06-14T10:57:33;4.93;;;2.90;;
23868;SDS011;12115;47.128;15.422;2023-06-14T11:00:05;2.95;;;2.42;;
23868;SDS011;12115;47.128;15.422;2023-06-14T11:06:01;7.18;;;2.42;;
23868;SDS011;12115;47.128;15.422;2023-06-14T11:11:29;2.67;;;2.47;;
23868;SDS011;12115;47.128;15.422;2023-06-14T11:14:02;5.90;;;2.80;;
23868;SDS011;12115;47.128;15.422;2023-06-14T11:16:29;3.55;;;2.40;;
23868;SDS011;12115;47.128;15.422;2023-06-14T11:19:00;2.78;;;2.55;;
23868;SDS011;12115;47.128;15.422;2023-06-14T11:21:32;3.28;;;2.25;;
23868;SDS011;12115;47.128;15.422;2023-06-14T11:24:00;2.85;;;2.30;;
23868;SDS011;12115;47.128;15.422;2023-06-14T11:26:28;3.33;;;1.98;;
23868;SDS011;12115;47.128;15.422;2023-06-14T11:28:57;4.20;;;2.35;;
23868;SDS011;12115;47.128;15.422;2023-06-14T11:31:26;4.78;;;2.10;;
23868;SDS011;12115;47.128;15.422;2023-06-14T11:33:56;2.88;;;2.53;;
23868;SDS011;12115;47.128;15.422;2023-06-14T11:36:28;2.70;;;2.05;;
23868;SDS011;12115;47.128;15.422;2023-06-14T11:38:57;3.58;;;2.45;;
23868;SDS011;12115;47.128;15.422;2023-06-14T11:41:31;3.83;;;2.33;;
23868;SDS011;12115;47.128;15.422;2023-06-14T11:44:09;5.05;;;2.65;;
23868;SDS011;12115;47.128;15.422;2023-06-14T11:46:37;4.30;;;2.20;;
23868;SDS011;12115;47.128;15.422;2023-06-14T11:49:06;3.15;;;2.28;;
23868;SDS011;12115;47.128;15.422;2023-06-14T11:51:35;5.25;;;2.35;;
23868;SDS011;12115;47.128;15.422;2023-06-14T11:54:03;4.43;;;2.90;;
23868;SDS011;12115;47.128;15.422;2023-06-14T11:56:32;2.67;;;2.25;;
23868;SDS011;12115;47.128;15.422;2023-06-14T11:59:02;3.42;;;2.70;;
23868;SDS011;12115;47.128;15.422;2023-06-14T12:01:35;4.53;;;2.75;;
23868;SDS011;12115;47.128;15.422;2023-06-14T12:04:05;4.93;;;2.88;;
23868;SDS011;12115;47.128;15.422;2023-06-14T12:06:33;4.00;;;2.40;;
23868;SDS011;12115;47.128;15.422;2023-06-14T12:09:08;7.70;;;2.72;;
23868;SDS011;12115;47.128;15.422;2023-06-14T12:11:44;3.55;;;2.58;;
23868;SDS011;12115;47.128;15.422;2023-06-14T12:14:11;5.57;;;2.55;;
23868;SDS011;12115;47.128;15.422;2023-06-14T12:16:39;5.50;;;2.58;;
23868;SDS011;12115;47.128;15.422;2023-06-14T12:19:09;4.00;;;2.30;;
23868;SDS011;12115;47.128;15.422;2023-06-14T12:21:41;3.90;;;2.33;;
23868;SDS011;12115;47.128;15.422;2023-06-14T12:24:09;7.10;;;2.30;;
23868;SDS011;12115;47.128;15.422;2023-06-14T12:26:40;2.85;;;2.10;;
23868;SDS011;12115;47.128;15.422;2023-06-14T12:29:12;4.38;;;2.35;;
23868;SDS011;12115;47.128;15.422;2023-06-14T12:31:40;3.08;;;2.40;;
23868;SDS011;12115;47.128;15.422;2023-06-14T12:34:08;4.93;;;2.42;;
23868;SDS011;12115;47.128;15.422;2023-06-14T12:36:36;3.90;;;1.95;;
23868;SDS011;12115;47.128;15.422;2023-06-14T12:39:09;5.22;;;2.17;;
23868;SDS011;12115;47.128;15.422;2023-06-14T12:41:36;3.22;;;2.58;;
23868;SDS011;12115;47.128;15.422;2023-06-14T12:44:15;5.20;;;2.53;;
23868;SDS011;12115;47.128;15.422;2023-06-14T12:46:42;3.08;;;2.67;;
23868;SDS011;12115;47.128;15.422;2023-06-14T12:49:10;4.07;;;2.28;;
23868;SDS011;12115;47.128;15.422;2023-06-14T12:51:39;4.28;;;2.30;;
23868;SDS011;12115;47.128;15.422;2023-06-14T12:54:07;4.65;;;2.40;;
23868;SDS011;12115;47.128;15.422;2023-06-14T12:56:35;2.40;;;2.17;;
23868;SDS011;12115;47.128;15.422;2023-06-14T12:59:03;5.00;;;2.50;;
23868;SDS011;12115;47.128;15.422;2023-06-14T13:01:30;2.78;;;2.47;;
23868;SDS011;12115;47.128;15.422;2023-06-14T13:03:57;5.07;;;2.08;;
23868;SDS011;12115;47.128;15.422;2023-06-14T13:06:25;4.60;;;2.08;;
23868;SDS011;12115;47.128;15.422;2023-06-14T13:08:52;3.15;;;2.40;;
23868;SDS011;12115;47.128;15.422;2023-06-14T13:11:21;2.92;;;2.42;;
23868;SDS011;12115;47.128;15.422;2023-06-14T13:13:50;3.05;;;2.50;;
23868;SDS011;12115;47.128;15.422;2023-06-14T13:16:17;3.55;;;2.40;;
23868;SDS011;12115;47.128;15.422;2023-06-14T13:18:45;5.45;;;2.40;;
23868;SDS011;12115;47.128;15.422;2023-06-14T13:21:12;2.45;;;2.13;;
23868;SDS011;12115;47.128;15.422;2023-06-14T13:23:39;6.40;;;2.47;;
23868;SDS011;12115;47.128;15.422;2023-06-14T13:26:08;4.70;;;2.30;;
23868;SDS011;12115;47.128;15.422;2023-06-14T13:28:36;3.78;;;2.40;;
23868;SDS011;12115;47.128;15.422;2023-06-14T13:31:03;3.38;;;2.60;;
23868;SDS011;12115;47.128;15.422;2023-06-14T13:33:31;4.93;;;1.95;;
23868;SDS011;12115;47.128;15.422;2023-06-14T13:36:01;5.23;;;2.33;;
23868;SDS011;12115;47.128;15.422;2023-06-14T13:38:29;5.20;;;2.35;;
23868;SDS011;12115;47.128;15.422;2023-06-14T13:40:56;3.17;;;2.20;;
23868;SDS011;12115;47.128;15.422;2023-06-14T13:43:24;5.32;;;2.60;;
23868;SDS011;12115;47.128;15.422;2023-06-14T13:45:54;4.03;;;2.40;;
23868;SDS011;12115;47.128;15.422;2023-06-14T13:48:21;7.45;;;2.38;;
23868;SDS011;12115;47.128;15.422;2023-06-14T13:50:48;3.70;;;2.53;;
23868;SDS011;12115;47.128;15.422;2023-06-14T13:53:17;2.92;;;2.00;;
23868;SDS011;12115;47.128;15.422;2023-06-14T13:55:44;5.38;;;2.63;;
23868;SDS011;12115;47.128;15.422;2023-06-14T13:58:12;3.67;;;2.30;;
23868;SDS011;12115;47.128;15.422;2023-06-14T14:00:41;5.80;;;2.47;;
23868;SDS011;12115;47.128;15.422;2023-06-14T14:03:08;4.05;;;2.25;;
23868;SDS011;12115;47.128;15.422;2023-06-14T14:05:35;3.15;;;2.45;;
23868;SDS011;12115;47.128;15.422;2023-06-14T14:08:03;4.63;;;2.67;;
23868;SDS011;12115;47.128;15.422;2023-06-14T14:10:30;2.85;;;2.40;;
23868;SDS011;12115;47.128;15.422;2023-06-14T14:12:58;5.40;;;2.22;;
23868;SDS011;12115;47.128;15.422;2023-06-14T14:15:26;3.10;;;2.28;;
23868;SDS011;12115;47.128;15.422;2023-06-14T14:17:55;3.15;;;2.33;;
23868;SDS011;12115;47.128;15.422;2023-06-14T14:20:24;4.63;;;2.10;;
23868;SDS011;12115;47.128;15.422;2023-06-14T14:22:51;2.75;;;2.25;;
23868;SDS011;12115;47.128;15.422;2023-06-14T14:25:18;2.92;;;2.20;;
23868;SDS011;12115;47.128;15.422;2023-06-14T14:27:46;3.75;;;2.28;;
23868;SDS011;12115;47.128;15.422;2023-06-14T14:30:14;3.75;;;2.60;;
23868;SDS011;12115;47.128;15.422;2023-06-14T14:32:44;3.70;;;2.25;;
23868;SDS011;12115;47.128;15.422;2023-06-14T14:35:11;3.40;;;2.40;;
23868;SDS011;12115;47.128;15.422;2023-06-14T14:37:38;7.93;;;2.50;;
23868;SDS011;12115;47.128;15.422;2023-06-14T14:40:06;4.47;;;2.42;;
23868;SDS011;12115;47.128;15.422;2023-06-14T14:42:38;4.93;;;2.63;;
23868;SDS011;12115;47.128;15.422;2023-06-14T14:45:11;3.05;;;2.53;;
23868;SDS011;12115;47.128;15.422;2023-06-14T14:47:42;3.83;;;2.53;;
23868;SDS011;12115;47.128;15.422;2023-06-14T14:50:09;4.47;;;2.60;;
23868;SDS011;12115;47.128;15.422;2023-06-14T14:52:37;3.92;;;2.40;;
23868;SDS011;12115;47.128;15.422;2023-06-14T14:55:04;5.20;;;2.72;;
23868;SDS011;12115;47.128;15.422;2023-06-14T14:57:33;4.10;;;2.40;;
23868;SDS011;12115;47.128;15.422;2023-06-14T15:00:00;2.75;;;2.50;;
23868;SDS011;12115;47.128;15.422;2023-06-14T15:02:27;2.80;;;2.45;;
23868;SDS011;12115;47.128;15.422;2023-06-14T15:04:55;2.88;;;2.40;;
23868;SDS011;12115;47.128;15.422;2023-06-14T15:07:30;3.72;;;2.40;;
23868;SDS011;12115;47.128;15.422;2023-06-14T15:10:01;3.65;;;2.40;;
23868;SDS011;12115;47.128;15.422;2023-06-14T15:12:29;6.57;;;2.38;;
23868;SDS011;12115;47.128;15.422;2023-06-14T15:14:56;4.15;;;2.28;;
23868;SDS011;12115;47.128;15.422;2023-06-14T15:17:23;4.20;;;2.70;;
23868;SDS011;12115;47.128;15.422;2023-06-14T15:19:52;2.75;;;2.30;;
23868;SDS011;12115;47.128;15.422;2023-06-14T15:22:19;2.42;;;2.17;;
23868;SDS011;12115;47.128;15.422;2023-06-14T15:24:46;4.53;;;2.80;;
23868;SDS011;12115;47.128;15.422;2023-06-14T15:27:16;5.95;;;2.58;;
23868;SDS011;12115;47.128;15.422;2023-06-14T15:29:43;2.92;;;2.42;;
23868;SDS011;12115;47.128;15.422;2023-06-14T15:34:42;4.22;;;2.70;;
23868;SDS011;12115;47.128;15.422;2023-06-14T15:37:10;2.72;;;2.53;;
23868;SDS011;12115;47.128;15.422;2023-06-14T15:39:37;3.72;;;2.53;;
23868;SDS011;12115;47.128;15.422;2023-06-14T15:42:06;3.55;;;2.40;;
23868;SDS011;12115;47.128;15.422;2023-06-14T15:44:34;4.80;;;2.42;;
23868;SDS011;12115;47.128;15.422;2023-06-14T15:47:02;2.90;;;2.35;;
23868;SDS011;12115;47.128;15.422;2023-06-14T15:49:30;5.50;;;2.90;;
23868;SDS011;12115;47.128;15.422;2023-06-14T15:51:57;8.07;;;2.90;;
23868;SDS011;12115;47.128;15.422;2023-06-14T15:54:25;4.05;;;2.42;;
23868;SDS011;12115;47.128;15.422;2023-06-14T15:56:52;3.70;;;2.45;;
23868;SDS011;12115;47.128;15.422;2023-06-14T15:59:19;3.97;;;2.92;;
23868;SDS011;12115;47.128;15.422;2023-06-14T16:01:47;3.13;;;2.70;;
23868;SDS011;12115;47.128;15.422;2023-06-14T16:04:14;4.47;;;2.22;;
23868;SDS011;12115;47.128;15.422;2023-06-14T16:06:42;4.60;;;2.67;;
23868;SDS011;12115;47.128;15.422;2023-06-14T16:09:09;5.03;;;2.85;;
23868;SDS011;12115;47.128;15.422;2023-06-14T16:11:37;8.00;;;2.60;;
23868;SDS011;12115;47.128;15.422;2023-06-14T16:14:04;7.32;;;2.58;;
23868;SDS011;12115;47.128;15.422;2023-06-14T16:16:31;6.32;;;2.65;;
23868;SDS011;12115;47.128;15.422;2023-06-14T16:18:59;5.78;;;2.72;;
23868;SDS011;12115;47.128;15.422;2023-06-14T16:21:26;5.75;;;2.40;;
23868;SDS011;12115;47.128;15.422;2023-06-14T16:23:54;2.92;;;2.30;;
23868;SDS011;12115;47.128;15.422;2023-06-14T16:26:21;3.05;;;2.67;;
23868;SDS011;12115;47.128;15.422;2023-06-14T16:28:48;3.53;;;2.60;;
23868;SDS011;12115;47.128;15.422;2023-06-14T16:31:16;5.80;;;2.80;;
23868;SDS011;12115;47.128;15.422;2023-06-14T16:33:48;3.28;;;2.30;;
23868;SDS011;12115;47.128;15.422;2023-06-14T16:36:21;4.32;;;2.67;;
23868;SDS011;12115;47.128;15.422;2023-06-14T16:38:49;2.88;;;2.55;;
23868;SDS011;12115;47.128;15.422;2023-06-14T16:41:17;3.67;;;2.70;;
23868;SDS011;12115;47.128;15.422;2023-06-14T16:43:44;3.75;;;2.78;;
23868;SDS011;12115;47.128;15.422;2023-06-14T16:46:13;2.70;;;2.40;;